createdAt,value
2018-09-04T00:01:34.559Z,15.10
2018-09-04T00:04:03.011Z,15.20
2018-09-04T00:06:31.501Z,15.10
2018-09-04T00:09:00.027Z,15.00
2018-09-04T00:11:28.516Z,15.10
2018-09-04T00:13:57.004Z,15.00
2018-09-04T00:16:25.470Z,15.00
2018-09-04T00:18:53.933Z,15.10
2018-09-04T00:21:22.440Z,15.00
2018-09-04T00:23:50.926Z,15.10
2018-09-04T00:26:19.449Z,15.00
2018-09-04T00:28:47.911Z,15.00
2018-09-04T00:31:16.376Z,14.90
2018-09-04T00:33:44.857Z,14.90
2018-09-04T00:36:13.360Z,14.80
2018-09-04T00:38:41.995Z,14.80
2018-09-04T00:41:10.459Z,14.80
2018-09-04T00:43:38.944Z,14.90
2018-09-04T00:46:07.635Z,14.90
2018-09-04T00:48:36.125Z,14.90
2018-09-04T00:51:04.707Z,14.90
2018-09-04T00:53:33.184Z,14.90
2018-09-04T00:56:01.667Z,14.90
2018-09-04T00:58:30.156Z,14.90
2018-09-04T01:00:58.602Z,14.90
2018-09-04T01:03:27.070Z,15.00
2018-09-04T01:05:55.522Z,14.90
2018-09-04T01:08:23.980Z,14.90
2018-09-04T01:10:52.459Z,14.90
2018-09-04T01:13:20.916Z,14.90
2018-09-04T01:15:49.387Z,14.90
2018-09-04T01:18:17.868Z,14.90
2018-09-04T01:20:46.354Z,14.90
2018-09-04T01:23:14.882Z,14.90
2018-09-04T01:25:43.424Z,14.90
2018-09-04T01:28:11.917Z,14.90
2018-09-04T01:30:40.378Z,14.90
2018-09-04T01:33:08.979Z,15.00
2018-09-04T01:35:37.520Z,15.00
2018-09-04T01:38:05.999Z,15.00
2018-09-04T01:40:34.498Z,15.00
2018-09-04T01:43:02.971Z,15.00
2018-09-04T01:45:31.491Z,15.00
2018-09-04T01:47:59.987Z,15.00
2018-09-04T01:50:28.508Z,15.00
2018-09-04T01:52:56.988Z,15.00
2018-09-04T01:55:25.481Z,15.00
2018-09-04T01:57:53.951Z,15.00
2018-09-04T02:00:22.440Z,14.90
2018-09-04T02:02:50.931Z,14.90
2018-09-04T02:05:19.439Z,14.90
2018-09-04T02:07:47.908Z,14.90
2018-09-04T02:10:16.408Z,14.90
2018-09-04T02:12:44.903Z,14.90
2018-09-04T02:15:13.395Z,14.80
2018-09-04T02:17:41.886Z,14.80
2018-09-04T02:20:10.379Z,14.80
2018-09-04T02:22:38.962Z,14.80
2018-09-04T02:25:08.131Z,14.90
2018-09-04T02:27:36.612Z,14.80
2018-09-04T02:30:05.332Z,14.80
2018-09-04T02:32:33.916Z,14.70
2018-09-04T02:37:53.691Z,14.80
2018-09-04T02:40:22.213Z,14.80
2018-09-04T02:42:50.787Z,14.80
2018-09-04T02:45:19.288Z,14.80
2018-09-04T02:47:47.808Z,14.80
2018-09-04T02:50:16.288Z,14.80
2018-09-04T02:52:44.792Z,14.80
2018-09-04T02:55:13.235Z,14.70
2018-09-04T02:57:41.732Z,14.90
2018-09-04T03:00:10.713Z,14.90
2018-09-04T03:02:41.046Z,14.80
2018-09-04T03:05:09.875Z,14.80
2018-09-04T03:07:38.359Z,14.80
2018-09-04T03:10:07.819Z,14.70
2018-09-04T03:12:36.339Z,14.70
2018-09-04T03:15:04.951Z,14.70
2018-09-04T03:17:33.435Z,14.70
2018-09-04T03:20:01.946Z,14.70
2018-09-04T03:22:30.439Z,14.60
2018-09-04T03:24:58.920Z,14.70
2018-09-04T03:27:27.424Z,14.70
2018-09-04T03:29:55.891Z,14.70
2018-09-04T03:32:24.396Z,14.50
2018-09-04T03:34:52.900Z,14.40
2018-09-04T03:37:21.383Z,14.40
2018-09-04T03:39:49.857Z,14.40
2018-09-04T03:42:18.378Z,14.50
2018-09-04T03:44:46.823Z,14.50
2018-09-04T03:47:15.300Z,14.40
2018-09-04T03:49:43.766Z,14.40
2018-09-04T03:52:12.260Z,14.50
2018-09-04T03:54:40.756Z,14.40
2018-09-04T03:57:09.223Z,14.50
2018-09-04T03:59:37.731Z,14.50
2018-09-04T04:02:06.571Z,14.40
2018-09-04T04:04:35.048Z,14.40
2018-09-04T04:07:03.488Z,14.40
2018-09-04T04:09:31.971Z,14.30
2018-09-04T04:12:00.489Z,14.20
2018-09-04T04:14:28.974Z,14.30
2018-09-04T04:16:57.513Z,14.20
2018-09-04T04:19:25.979Z,14.20
2018-09-04T04:21:54.459Z,14.20
2018-09-04T04:24:22.937Z,14.20
2018-09-04T04:26:51.397Z,14.20
2018-09-04T04:29:19.942Z,14.20
2018-09-04T04:31:48.432Z,14.20
2018-09-04T04:34:16.991Z,14.10
2018-09-04T04:36:45.499Z,14.10
2018-09-04T04:39:14.003Z,14.10
2018-09-04T04:41:42.516Z,14.20
2018-09-04T04:44:11.024Z,14.20
2018-09-04T04:46:39.544Z,14.20
2018-09-04T04:49:08.303Z,14.20
2018-09-04T04:51:36.830Z,14.30
2018-09-04T04:54:05.554Z,14.30
2018-09-04T04:56:34.333Z,14.30
2018-09-04T04:59:03.224Z,14.40
2018-09-04T05:01:31.928Z,14.20
2018-09-04T05:04:01.015Z,14.30
2018-09-04T05:06:29.701Z,14.20
2018-09-04T05:08:58.213Z,14.20
2018-09-04T05:11:26.966Z,14.30
2018-09-04T05:13:55.442Z,14.30
2018-09-04T05:16:24.178Z,14.30
2018-09-04T05:18:53.423Z,14.40
2018-09-04T05:21:22.013Z,14.30
2018-09-04T05:23:50.680Z,14.30
2018-09-04T05:26:19.368Z,14.30
2018-09-04T05:28:47.947Z,14.40
2018-09-04T05:31:16.737Z,14.40
2018-09-04T05:33:46.283Z,14.40
2018-09-04T05:36:15.543Z,14.50
2018-09-04T05:38:44.147Z,14.50
2018-09-04T05:41:12.917Z,14.40
2018-09-04T05:43:50.544Z,14.50
2018-09-04T05:46:53.942Z,14.50
2018-09-04T05:49:28.046Z,14.60
2018-09-04T05:51:56.770Z,14.70
2018-09-04T05:54:25.380Z,14.70
2018-09-04T05:56:53.952Z,14.70
2018-09-04T05:59:22.633Z,14.70
2018-09-04T06:01:51.220Z,14.70
2018-09-04T06:04:19.799Z,14.70
2018-09-04T06:06:48.377Z,14.70
2018-09-04T06:09:17.068Z,14.60
2018-09-04T06:11:45.746Z,14.60
2018-09-04T06:14:14.409Z,14.60
2018-09-04T06:16:42.994Z,14.60
2018-09-04T06:19:11.692Z,14.70
2018-09-04T06:21:40.451Z,14.60
2018-09-04T06:24:09.068Z,14.70
2018-09-04T06:26:37.763Z,14.70
2018-09-04T06:29:06.350Z,14.70
2018-09-04T06:31:34.947Z,14.70
2018-09-04T06:34:03.682Z,14.70
2018-09-04T06:36:32.299Z,14.70
2018-09-04T06:39:01.096Z,14.70
2018-09-04T06:41:29.735Z,14.70
2018-09-04T06:43:58.360Z,14.70
2018-09-04T06:46:26.980Z,14.60
2018-09-04T06:48:55.589Z,14.60
2018-09-04T06:51:24.171Z,14.60
2018-09-04T06:53:52.740Z,14.70
2018-09-04T06:56:21.393Z,14.70
2018-09-04T06:58:50.082Z,14.80
2018-09-04T07:01:18.788Z,14.80
2018-09-04T07:03:47.277Z,14.70
2018-09-04T07:06:15.937Z,14.70
2018-09-04T07:08:44.516Z,14.70
2018-09-04T07:11:13.600Z,14.70
2018-09-04T07:13:42.148Z,14.70
2018-09-04T07:16:10.816Z,14.80
2018-09-04T07:18:39.555Z,14.80
2018-09-04T07:21:07.780Z,14.90
2018-09-04T07:23:36.357Z,14.90
2018-09-04T07:26:05.062Z,14.90
2018-09-04T07:28:33.776Z,14.90
2018-09-04T07:31:02.410Z,14.80
2018-09-04T07:33:31.077Z,14.70
2018-09-04T07:35:59.709Z,14.80
2018-09-04T07:38:28.356Z,14.80
2018-09-04T07:40:56.941Z,14.80
2018-09-04T07:43:25.477Z,14.80
2018-09-04T07:45:54.087Z,14.80
2018-09-04T07:48:22.674Z,14.80
2018-09-04T07:50:51.304Z,14.80
2018-09-04T07:53:19.847Z,14.90
2018-09-04T07:55:48.500Z,14.90
2018-09-04T07:58:17.107Z,14.90
2018-09-04T08:00:46.411Z,14.90
2018-09-04T08:03:15.639Z,15.00
2018-09-04T08:05:44.802Z,14.90
2018-09-04T08:08:14.193Z,14.90
2018-09-04T08:10:46.014Z,15.00
2018-09-04T08:15:59.770Z,15.00
2018-09-04T08:18:29.071Z,14.90
2018-09-04T08:20:58.555Z,15.00
2018-09-04T08:23:27.725Z,14.90
2018-09-04T08:25:57.280Z,14.90
2018-09-04T08:28:27.683Z,15.00
2018-09-04T08:33:42.164Z,14.90
2018-09-04T08:36:41.481Z,14.90
2018-09-04T08:39:10.732Z,15.00
2018-09-04T08:41:41.364Z,15.20
2018-09-04T08:44:19.931Z,15.20
2018-09-04T08:46:49.183Z,15.30
2018-09-04T08:49:18.885Z,15.30
2018-09-04T08:51:47.977Z,15.20
2018-09-04T08:54:17.112Z,15.30
2018-09-04T08:56:46.516Z,15.20
2018-09-04T08:59:15.628Z,15.20
2018-09-04T09:01:44.900Z,15.20
2018-09-04T09:04:13.973Z,15.20
2018-09-04T09:06:43.120Z,15.30
2018-09-04T09:09:12.143Z,15.20
2018-09-04T09:11:41.461Z,15.30
2018-09-04T09:14:10.457Z,15.40
2018-09-04T09:16:39.656Z,15.50
2018-09-04T09:19:08.696Z,15.50
2018-09-04T09:21:38.247Z,15.50
2018-09-04T09:24:07.707Z,15.60
2018-09-04T09:26:37.002Z,15.60
2018-09-04T09:29:06.286Z,15.60
2018-09-04T09:31:35.201Z,15.80
2018-09-04T09:34:04.462Z,15.70
2018-09-04T09:36:33.570Z,15.80
2018-09-04T09:39:02.897Z,15.90
2018-09-04T09:41:32.184Z,16.00
2018-09-04T09:44:01.548Z,16.10
2018-09-04T09:46:30.732Z,16.20
2018-09-04T09:49:00.201Z,16.50
2018-09-04T09:51:29.434Z,16.40
2018-09-04T09:53:58.799Z,16.30
2018-09-04T09:56:27.783Z,16.30
2018-09-04T09:58:56.991Z,16.40
2018-09-04T10:01:32.244Z,16.70
2018-09-04T10:04:05.395Z,16.70
2018-09-04T10:06:34.775Z,16.80
2018-09-04T10:09:05.766Z,16.90
2018-09-04T10:11:35.370Z,17.00
2018-09-04T10:14:04.875Z,16.90
2018-09-04T10:16:34.324Z,16.90
2018-09-04T10:19:35.017Z,17.10
2018-09-04T10:22:04.317Z,17.10
2018-09-04T10:24:33.461Z,17.10
2018-09-04T10:27:02.511Z,16.90
2018-09-04T10:29:32.133Z,16.80
2018-09-04T10:32:01.590Z,16.90
2018-09-04T10:34:30.697Z,17.00
2018-09-04T10:36:59.813Z,17.10
2018-09-04T10:39:41.296Z,17.10
2018-09-04T10:50:34.783Z,16.90
2018-09-04T10:53:04.429Z,16.90
2018-09-04T10:59:03.033Z,16.90
2018-09-04T11:04:30.662Z,16.70
2018-09-04T11:06:59.861Z,16.60
2018-09-04T11:09:31.995Z,16.80
2018-09-04T11:12:01.073Z,17.00
2018-09-04T11:14:58.113Z,17.20
2018-09-04T11:17:27.173Z,17.10
2018-09-04T11:19:56.250Z,17.00
2018-09-04T11:22:26.585Z,16.90
2018-09-04T11:24:59.098Z,17.10
2018-09-04T11:27:28.483Z,17.10
2018-09-04T11:33:25.896Z,17.20
2018-09-04T11:39:00.951Z,17.30
2018-09-04T11:54:04.098Z,17.40
2018-09-04T11:56:38.590Z,17.40
2018-09-04T12:02:41.861Z,17.60
2018-09-04T12:08:22.243Z,17.50
2018-09-04T12:10:51.953Z,17.50
2018-09-04T12:25:34.175Z,17.20
2018-09-04T12:28:04.108Z,17.60
2018-09-04T12:30:36.928Z,17.60
2018-09-04T12:33:06.031Z,17.70
2018-09-04T12:35:53.041Z,17.50
2018-09-04T12:38:24.542Z,17.60
2018-09-04T12:41:04.839Z,17.70
2018-09-04T12:43:34.027Z,17.90
2018-09-04T12:46:04.490Z,17.90
2018-09-04T12:48:47.619Z,18.10
2018-09-04T12:51:16.787Z,18.40
2018-09-04T12:53:46.378Z,18.30
2018-09-04T12:56:15.917Z,18.30
2018-09-04T12:58:46.972Z,18.50
2018-09-04T13:01:27.520Z,18.60
2018-09-04T13:04:03.987Z,18.70
2018-09-04T13:06:36.155Z,18.40
2018-09-04T13:27:41.930Z,18.40
2018-09-04T13:30:13.299Z,18.10
2018-09-04T13:35:41.041Z,18.10
2018-09-04T13:38:10.569Z,18.10
2018-09-04T13:40:39.767Z,17.80
2018-09-04T13:43:31.892Z,17.60
2018-09-04T13:46:16.255Z,17.60
2018-09-04T13:52:02.472Z,17.50
2018-09-04T14:00:27.588Z,17.50
2018-09-04T14:02:56.950Z,17.60
2018-09-04T14:05:30.306Z,17.70
2018-09-04T14:14:55.770Z,17.80
2018-09-04T14:17:26.604Z,17.70
2018-09-04T14:24:33.970Z,17.90
2018-09-04T14:28:41.816Z,17.90
2018-09-04T14:31:11.211Z,18.00
2018-09-04T14:33:40.280Z,17.90
2018-09-04T14:36:09.488Z,17.90
2018-09-04T14:43:47.876Z,18.00
2018-09-04T14:46:39.602Z,17.80
2018-09-04T14:49:08.869Z,17.60
2018-09-04T14:51:39.706Z,17.70
2018-09-04T14:54:24.809Z,17.80
2018-09-04T14:57:47.614Z,17.80
2018-09-04T15:00:17.068Z,17.60
2018-09-04T15:02:51.514Z,17.60
2018-09-04T15:08:18.567Z,17.70
2018-09-04T15:10:51.930Z,17.90
2018-09-04T15:23:07.175Z,17.80
2018-09-04T15:25:48.837Z,17.90
2018-09-04T15:31:07.968Z,18.00
2018-09-04T15:34:42.290Z,17.90
2018-09-04T15:37:25.128Z,17.90
2018-09-04T15:40:08.414Z,18.10
2018-09-04T15:51:17.909Z,18.10
2018-09-04T15:53:52.908Z,17.90
2018-09-04T15:59:50.401Z,18.50
2018-09-04T16:02:42.067Z,18.70
2018-09-04T16:05:21.860Z,18.90
2018-09-04T16:07:57.681Z,18.80
2018-09-04T16:10:33.500Z,18.50
2018-09-04T16:13:10.096Z,18.50
2018-09-04T16:15:52.373Z,18.60
2018-09-04T16:21:36.910Z,18.90
2018-09-04T16:24:11.952Z,18.50
2018-09-04T16:26:43.832Z,18.60
2018-09-04T16:29:41.082Z,18.50
2018-09-04T16:35:04.747Z,18.40
2018-09-04T16:37:38.216Z,18.30
2018-09-04T16:43:10.348Z,18.10
2018-09-04T16:46:54.025Z,18.10
2018-09-04T16:52:40.879Z,18.00
2018-09-04T16:55:18.471Z,18.00
2018-09-04T17:04:14.275Z,17.90
2018-09-04T17:09:44.624Z,17.80
2018-09-04T17:12:20.016Z,17.80
2018-09-04T17:15:21.444Z,17.70
2018-09-04T17:17:57.844Z,17.60
2018-09-04T17:20:45.679Z,17.50
2018-09-04T17:23:38.319Z,17.50
2018-09-04T17:26:16.923Z,17.50
2018-09-04T17:29:07.377Z,17.50
2018-09-04T17:31:44.415Z,17.40
2018-09-04T17:34:27.764Z,17.20
2018-09-04T17:37:06.245Z,17.20
2018-09-04T17:39:36.524Z,17.20
2018-09-04T17:46:43.779Z,17.00
2018-09-04T17:49:22.774Z,16.90
2018-09-04T17:51:58.646Z,16.80
2018-09-04T17:54:40.709Z,16.80
2018-09-04T17:57:15.635Z,16.70
2018-09-04T17:59:45.986Z,16.60
2018-09-04T18:02:17.574Z,16.60
2018-09-04T18:04:49.948Z,16.70
2018-09-04T18:07:22.032Z,16.70
2018-09-04T18:12:34.787Z,16.40
2018-09-04T18:15:04.986Z,16.40
2018-09-04T18:17:34.859Z,16.40
2018-09-04T18:20:04.299Z,16.20
2018-09-04T18:22:34.781Z,16.20
2018-09-04T18:25:06.098Z,16.10
2018-09-04T18:27:38.060Z,16.00
2018-09-04T18:30:07.657Z,16.00
2018-09-04T18:32:37.447Z,15.90
2018-09-04T18:35:08.262Z,15.80
2018-09-04T18:37:39.283Z,15.70
2018-09-04T18:40:08.348Z,15.70
2018-09-04T18:42:37.655Z,15.70
2018-09-04T18:45:06.702Z,15.60
2018-09-04T18:47:36.313Z,15.60
2018-09-04T18:50:10.043Z,15.50
2018-09-04T18:52:41.375Z,15.40
2018-09-04T18:55:13.507Z,15.40
2018-09-04T18:57:43.381Z,15.40
2018-09-04T19:00:16.252Z,15.30
2018-09-04T19:02:48.350Z,15.30
2018-09-04T19:05:20.414Z,15.30
2018-09-04T19:08:00.617Z,15.30
2018-09-04T19:10:37.033Z,15.20
2018-09-04T19:13:06.889Z,15.20
2018-09-04T19:15:38.943Z,15.10
2018-09-04T19:18:11.862Z,15.20
2018-09-04T19:20:47.017Z,15.20
2018-09-04T19:23:15.703Z,15.20
2018-09-04T19:25:45.404Z,15.10
2018-09-04T19:28:14.106Z,15.10
2018-09-04T19:30:42.700Z,15.10
2018-09-04T19:33:11.755Z,15.20
2018-09-04T19:35:41.574Z,15.10
2018-09-04T19:38:10.343Z,15.10
2018-09-04T19:40:38.843Z,15.10
2018-09-04T19:43:08.068Z,15.10
2018-09-04T19:45:36.838Z,15.10
2018-09-04T19:48:06.184Z,15.10
2018-09-04T19:50:34.900Z,15.10
2018-09-04T19:53:03.539Z,15.10
2018-09-04T19:55:32.163Z,15.10
2018-09-04T19:58:00.672Z,15.00
2018-09-04T20:00:29.249Z,15.00
2018-09-04T20:03:02.511Z,15.00
2018-09-04T20:05:31.107Z,15.00
2018-09-04T20:07:59.811Z,15.00
2018-09-04T20:10:28.347Z,15.00
2018-09-04T20:12:56.897Z,15.00
2018-09-04T20:15:25.859Z,15.00
2018-09-04T20:17:54.415Z,15.00
2018-09-04T20:20:22.967Z,15.00
2018-09-04T20:22:53.364Z,15.00
2018-09-04T20:25:22.259Z,15.00
2018-09-04T20:27:51.079Z,15.00
2018-09-04T20:30:20.920Z,15.00
2018-09-04T20:32:49.763Z,15.00
2018-09-04T20:35:18.464Z,15.00
2018-09-04T20:37:47.057Z,15.00
2018-09-04T20:40:16.906Z,14.90
2018-09-04T20:42:45.457Z,14.90
2018-09-04T20:45:13.999Z,14.90
2018-09-04T20:47:45.805Z,14.90
2018-09-04T20:52:55.414Z,14.90
2018-09-04T20:55:26.011Z,14.80
2018-09-04T20:58:05.891Z,14.80
2018-09-04T21:00:45.749Z,14.90
2018-09-04T21:03:26.010Z,14.80
2018-09-04T21:06:06.164Z,14.80
2018-09-04T21:08:47.061Z,14.80
2018-09-04T21:11:15.616Z,14.70
2018-09-04T21:13:44.284Z,14.70
2018-09-04T21:16:13.078Z,14.70
2018-09-04T21:18:42.376Z,14.70
2018-09-04T21:21:11.203Z,14.60
2018-09-04T21:23:39.879Z,14.60
2018-09-04T21:26:08.857Z,14.50
2018-09-04T21:28:38.851Z,14.50
2018-09-04T21:31:07.599Z,14.40
2018-09-04T21:33:37.541Z,14.40
2018-09-04T21:36:06.400Z,14.40
2018-09-04T21:38:35.265Z,14.40
2018-09-04T21:43:42.720Z,14.30
2018-09-04T21:46:11.249Z,14.30
2018-09-04T21:48:39.923Z,14.20
2018-09-04T21:51:10.202Z,14.20
2018-09-04T21:53:38.754Z,14.10
2018-09-04T21:56:07.267Z,14.10
2018-09-04T21:58:35.803Z,14.10
2018-09-04T22:01:04.409Z,14.10
2018-09-04T22:03:33.039Z,14.00
2018-09-04T22:06:02.387Z,13.90
2018-09-04T22:08:30.960Z,13.90
2018-09-04T22:10:59.563Z,13.80
2018-09-04T22:13:28.069Z,13.70
2018-09-04T22:15:56.591Z,13.70
2018-09-04T22:18:25.313Z,13.70
2018-09-04T22:20:53.900Z,13.70
2018-09-04T22:23:22.428Z,13.70
2018-09-04T22:25:51.094Z,13.60
2018-09-04T22:28:19.688Z,13.60
2018-09-04T22:30:48.382Z,13.60
2018-09-04T22:33:16.952Z,13.60
2018-09-04T22:35:45.576Z,13.50
2018-09-04T22:38:14.136Z,13.50
2018-09-04T22:40:42.676Z,13.50
2018-09-04T22:43:11.479Z,13.40
2018-09-04T22:45:40.104Z,13.40
2018-09-04T22:48:08.793Z,13.40
2018-09-04T22:50:43.046Z,13.30
2018-09-04T22:53:11.879Z,13.30
2018-09-04T22:55:40.538Z,13.20
2018-09-04T22:58:09.671Z,13.30
2018-09-04T23:00:38.376Z,13.20
2018-09-04T23:03:07.882Z,13.20
2018-09-04T23:05:36.640Z,13.20
2018-09-04T23:08:05.625Z,13.20
2018-09-04T23:10:34.452Z,13.20
2018-09-04T23:13:03.328Z,13.10
2018-09-04T23:15:32.472Z,13.10
2018-09-04T23:18:01.238Z,13.10
2018-09-04T23:20:30.135Z,13.10
2018-09-04T23:22:59.166Z,13.00
2018-09-04T23:25:28.788Z,13.00
2018-09-04T23:27:57.547Z,13.00
2018-09-04T23:30:26.774Z,12.90
2018-09-04T23:32:55.937Z,12.80
2018-09-04T23:35:24.459Z,12.70
2018-09-04T23:37:53.003Z,12.70
2018-09-04T23:40:21.604Z,12.70
2018-09-04T23:42:50.431Z,12.70
2018-09-04T23:45:18.948Z,12.70
2018-09-04T23:47:47.524Z,12.70
2018-09-04T23:50:16.083Z,12.70
2018-09-04T23:52:44.641Z,12.70
2018-09-04T23:55:13.199Z,12.60
2018-09-04T23:57:41.768Z,12.60
